sensor_id;sensor_type;location;lat;lon;timestamp;pressure;altitude;pressure_sealevel;temperature;humidity
22582;BME280;47125;48.542;9.052;2023-12-14T00:00:26;94894.81;;;8.09;82.69
22582;BME280;47125;48.542;9.052;2023-12-14T00:10:30;94900.72;;;8.11;83.49
22582;BME280;47125;48.542;9.052;2023-12-14T00:20:32;94917.19;;;7.91;84.38
22582;BME280;47125;48.542;9.052;2023-12-14T00:30:36;94920.41;;;7.93;85.29
22582;BME280;47125;48.542;9.052;2023-12-14T00:40:39;94935.94;;;8.01;85.20
22582;BME280;47125;48.542;9.052;2023-12-14T00:50:43;94942.63;;;8.25;83.87
22582;BME280;47125;48.542;9.052;2023-12-14T01:00:45;94957.69;;;8.37;83.64
22582;BME280;47125;48.542;9.052;2023-12-14T01:10:49;94969.94;;;8.38;83.54
22582;BME280;47125;48.542;9.052;2023-12-14T01:20:52;94981.44;;;8.43;84.06
22582;BME280;47125;48.542;9.052;2023-12-14T01:30:56;95005.38;;;8.43;84.22
22582;BME280;47125;48.542;9.052;2023-12-14T01:40:59;95019.28;;;8.50;83.92
22582;BME280;47125;48.542;9.052;2023-12-14T01:51:03;95036.63;;;8.53;84.81
22582;BME280;47125;48.542;9.052;2023-12-14T02:01:08;95048.38;;;8.57;84.69
22582;BME280;47125;48.542;9.052;2023-12-14T02:11:14;95048.13;;;8.58;84.54
22582;BME280;47125;48.542;9.052;2023-12-14T02:21:17;95067.78;;;8.36;86.11
22582;BME280;47125;48.542;9.052;2023-12-14T02:31:21;95062.47;;;8.36;85.99
22582;BME280;47125;48.542;9.052;2023-12-14T02:41:24;95079.06;;;8.26;86.67
22582;BME280;47125;48.542;9.052;2023-12-14T02:51:28;95080.03;;;8.37;86.23
22582;BME280;47125;48.542;9.052;2023-12-14T03:01:30;95091.53;;;8.42;85.83
22582;BME280;47125;48.542;9.052;2023-12-14T03:11:34;95093.72;;;8.45;85.85
22582;BME280;47125;48.542;9.052;2023-12-14T03:21:37;95119.13;;;8.36;85.43
22582;BME280;47125;48.542;9.052;2023-12-14T03:31:40;95130.34;;;8.38;85.88
22582;BME280;47125;48.542;9.052;2023-12-14T03:41:43;95141.50;;;8.23;86.48
22582;BME280;47125;48.542;9.052;2023-12-14T03:51:47;95146.47;;;8.32;85.44
22582;BME280;47125;48.542;9.052;2023-12-14T04:01:50;95170.03;;;8.11;86.68
22582;BME280;47125;48.542;9.052;2023-12-14T04:11:54;95190.72;;;8.38;85.66
22582;BME280;47125;48.542;9.052;2023-12-14T04:21:57;95204.78;;;8.21;86.45
22582;BME280;47125;48.542;9.052;2023-12-14T04:32:00;95215.72;;;8.08;87.46
22582;BME280;47125;48.542;9.052;2023-12-14T04:42:03;95230.25;;;8.17;87.35
22582;BME280;47125;48.542;9.052;2023-12-14T04:52:07;95246.84;;;8.24;87.30
22582;BME280;47125;48.542;9.052;2023-12-14T05:02:10;95258.66;;;8.28;86.77
22582;BME280;47125;48.542;9.052;2023-12-14T05:12:14;95281.97;;;8.38;86.23
22582;BME280;47125;48.542;9.052;2023-12-14T05:22:17;95288.09;;;8.39;86.35
22582;BME280;47125;48.542;9.052;2023-12-14T05:32:21;95314.28;;;8.30;86.32
22582;BME280;47125;48.542;9.052;2023-12-14T05:42:23;95340.75;;;8.53;85.80
22582;BME280;47125;48.542;9.052;2023-12-14T05:52:27;95358.09;;;8.56;85.38
22582;BME280;47125;48.542;9.052;2023-12-14T06:02:30;95364.31;;;8.61;85.35
22582;BME280;47125;48.542;9.052;2023-12-14T06:12:34;95380.28;;;8.61;85.48
22582;BME280;47125;48.542;9.052;2023-12-14T06:22:38;95404.78;;;8.63;85.82
22582;BME280;47125;48.542;9.052;2023-12-14T06:32:42;95409.91;;;8.65;85.83
22582;BME280;47125;48.542;9.052;2023-12-14T06:42:44;95428.19;;;8.61;86.14
22582;BME280;47125;48.542;9.052;2023-12-14T06:52:48;95447.25;;;8.70;86.25
22582;BME280;47125;48.542;9.052;2023-12-14T07:02:51;95477.00;;;8.67;86.34
22582;BME280;47125;48.542;9.052;2023-12-14T07:12:55;95491.72;;;8.58;86.67
22582;BME280;47125;48.542;9.052;2023-12-14T07:22:58;95515.13;;;8.56;85.98
22582;BME280;47125;48.542;9.052;2023-12-14T07:33:01;95535.69;;;8.60;86.47
22582;BME280;47125;48.542;9.052;2023-12-14T07:43:06;95551.44;;;8.62;86.32
22582;BME280;47125;48.542;9.052;2023-12-14T07:53:10;95570.97;;;8.67;86.29
22582;BME280;47125;48.542;9.052;2023-12-14T08:03:12;95576.84;;;8.69;86.22
22582;BME280;47125;48.542;9.052;2023-12-14T08:13:16;95603.34;;;8.76;85.75
22582;BME280;47125;48.542;9.052;2023-12-14T08:23:19;95627.53;;;8.74;86.09
22582;BME280;47125;48.542;9.052;2023-12-14T08:33:23;95646.16;;;8.74;85.86
22582;BME280;47125;48.542;9.052;2023-12-14T08:43:26;95652.75;;;8.83;86.15
22582;BME280;47125;48.542;9.052;2023-12-14T08:53:30;95672.91;;;8.79;86.49
22582;BME280;47125;48.542;9.052;2023-12-14T09:03:33;95696.44;;;8.71;87.84
22582;BME280;47125;48.542;9.052;2023-12-14T09:13:37;95714.34;;;8.52;88.95
22582;BME280;47125;48.542;9.052;2023-12-14T09:23:39;95736.22;;;8.77;87.78
22582;BME280;47125;48.542;9.052;2023-12-14T09:33:44;95756.47;;;9.02;87.29
22582;BME280;47125;48.542;9.052;2023-12-14T09:43:46;95769.78;;;8.67;87.71
22582;BME280;47125;48.542;9.052;2023-12-14T09:53:50;95775.78;;;9.20;88.00
22582;BME280;47125;48.542;9.052;2023-12-14T10:04:08;95792.00;;;9.42;86.99
22582;BME280;47125;48.542;9.052;2023-12-14T10:14:18;95812.75;;;9.40;86.70
22582;BME280;47125;48.542;9.052;2023-12-14T10:24:22;95817.75;;;9.25;85.73
22582;BME280;47125;48.542;9.052;2023-12-14T10:34:26;95822.81;;;9.38;87.11
22582;BME280;47125;48.542;9.052;2023-12-14T10:44:29;95844.25;;;9.31;87.45
22582;BME280;47125;48.542;9.052;2023-12-14T10:54:56;95840.06;;;9.47;87.07
22582;BME280;47125;48.542;9.052;2023-12-14T11:05:00;95852.44;;;9.65;87.08
22582;BME280;47125;48.542;9.052;2023-12-14T11:15:09;95857.75;;;9.76;86.77
22582;BME280;47125;48.542;9.052;2023-12-14T11:25:11;95862.75;;;10.13;85.39
22582;BME280;47125;48.542;9.052;2023-12-14T11:35:16;95873.16;;;11.32;82.70
22582;BME280;47125;48.542;9.052;2023-12-14T11:45:19;95897.94;;;12.69;73.84
22582;BME280;47125;48.542;9.052;2023-12-14T11:55:23;95911.22;;;11.23;76.38
22582;BME280;47125;48.542;9.052;2023-12-14T12:05:34;95918.75;;;10.92;78.71
22582;BME280;47125;48.542;9.052;2023-12-14T12:15:39;95918.09;;;10.57;81.02
22582;BME280;47125;48.542;9.052;2023-12-14T12:25:41;95927.22;;;10.44;80.88
22582;BME280;47125;48.542;9.052;2023-12-14T12:35:45;95931.09;;;10.25;84.38
22582;BME280;47125;48.542;9.052;2023-12-14T12:45:48;95927.28;;;10.21;79.54
22582;BME280;47125;48.542;9.052;2023-12-14T12:55:51;95940.75;;;10.15;80.48
22582;BME280;47125;48.542;9.052;2023-12-14T13:05:54;95944.31;;;10.32;82.63
22582;BME280;47125;48.542;9.052;2023-12-14T13:15:59;95956.47;;;10.28;81.30
22582;BME280;47125;48.542;9.052;2023-12-14T13:26:01;95968.47;;;9.90;84.14
22582;BME280;47125;48.542;9.052;2023-12-14T13:36:06;95975.22;;;9.70;84.03
22582;BME280;47125;48.542;9.052;2023-12-14T13:46:10;95991.06;;;9.53;83.93
22582;BME280;47125;48.542;9.052;2023-12-14T13:56:23;96005.22;;;10.12;78.20
22582;BME280;47125;48.542;9.052;2023-12-14T14:06:26;96018.22;;;10.08;77.31
22582;BME280;47125;48.542;9.052;2023-12-14T14:16:30;96036.34;;;10.06;77.28
22582;BME280;47125;48.542;9.052;2023-12-14T14:26:33;96060.19;;;9.78;78.08
22582;BME280;47125;48.542;9.052;2023-12-14T14:36:37;96078.75;;;9.84;78.01
22582;BME280;47125;48.542;9.052;2023-12-14T14:46:40;96106.47;;;9.95;78.60
22582;BME280;47125;48.542;9.052;2023-12-14T14:56:44;96132.94;;;9.85;80.87
22582;BME280;47125;48.542;9.052;2023-12-14T15:06:46;96148.94;;;9.85;83.28
22582;BME280;47125;48.542;9.052;2023-12-14T15:16:50;96158.06;;;9.77;83.71
22582;BME280;47125;48.542;9.052;2023-12-14T15:26:53;96172.47;;;9.28;87.66
22582;BME280;47125;48.542;9.052;2023-12-14T15:36:57;96206.84;;;9.18;87.92
22582;BME280;47125;48.542;9.052;2023-12-14T15:46:59;96223.09;;;9.10;87.44
22582;BME280;47125;48.542;9.052;2023-12-14T15:57:03;96236.88;;;9.07;86.62
22582;BME280;47125;48.542;9.052;2023-12-14T16:07:06;96254.63;;;9.31;84.01
22582;BME280;47125;48.542;9.052;2023-12-14T16:17:10;96279.81;;;9.35;83.20
22582;BME280;47125;48.542;9.052;2023-12-14T16:27:13;96284.84;;;9.25;83.28
22582;BME280;47125;48.542;9.052;2023-12-14T16:37:16;96298.38;;;9.06;82.61
22582;BME280;47125;48.542;9.052;2023-12-14T16:47:20;96315.13;;;9.13;82.45
22582;BME280;47125;48.542;9.052;2023-12-14T16:57:24;96329.13;;;9.02;82.64
22582;BME280;47125;48.542;9.052;2023-12-14T17:07:26;96352.09;;;9.03;83.20
22582;BME280;47125;48.542;9.052;2023-12-14T17:17:30;96358.97;;;9.10;82.79
22582;BME280;47125;48.542;9.052;2023-12-14T17:27:35;96373.41;;;9.03;82.03
22582;BME280;47125;48.542;9.052;2023-12-14T17:37:40;96382.38;;;9.08;82.40
22582;BME280;47125;48.542;9.052;2023-12-14T17:47:43;96410.25;;;9.06;82.68
22582;BME280;47125;48.542;9.052;2023-12-14T17:57:46;96428.31;;;9.04;82.80
22582;BME280;47125;48.542;9.052;2023-12-14T18:07:50;96431.22;;;8.96;83.03
22582;BME280;47125;48.542;9.052;2023-12-14T18:17:54;96435.69;;;9.02;82.64
22582;BME280;47125;48.542;9.052;2023-12-14T18:27:57;96460.75;;;8.56;85.22
22582;BME280;47125;48.542;9.052;2023-12-14T18:38:04;96475.94;;;8.56;84.20
22582;BME280;47125;48.542;9.052;2023-12-14T18:48:07;96492.03;;;8.74;82.93
22582;BME280;47125;48.542;9.052;2023-12-14T18:58:11;96503.56;;;8.61;82.90
22582;BME280;47125;48.542;9.052;2023-12-14T19:08:14;96537.53;;;8.59;81.63
22582;BME280;47125;48.542;9.052;2023-12-14T19:18:18;96549.28;;;8.45;81.59
22582;BME280;47125;48.542;9.052;2023-12-14T19:28:21;96550.72;;;8.41;81.10
22582;BME280;47125;48.542;9.052;2023-12-14T19:38:25;96571.63;;;8.38;82.35
22582;BME280;47125;48.542;9.052;2023-12-14T19:48:27;96584.72;;;8.39;81.57
22582;BME280;47125;48.542;9.052;2023-12-14T19:58:31;96604.38;;;8.38;81.31
22582;BME280;47125;48.542;9.052;2023-12-14T20:08:34;96617.47;;;8.33;81.75
22582;BME280;47125;48.542;9.052;2023-12-14T20:18:38;96625.25;;;8.35;81.73
22582;BME280;47125;48.542;9.052;2023-12-14T20:28:41;96644.91;;;8.34;81.50
22582;BME280;47125;48.542;9.052;2023-12-14T20:38:45;96671.91;;;8.17;82.05
22582;BME280;47125;48.542;9.052;2023-12-14T20:48:47;96678.66;;;8.00;82.95
22582;BME280;47125;48.542;9.052;2023-12-14T20:58:51;96695.44;;;8.27;82.46
22582;BME280;47125;48.542;9.052;2023-12-14T21:08:55;96707.31;;;8.24;82.32
22582;BME280;47125;48.542;9.052;2023-12-14T21:18:59;96728.16;;;7.95;80.18
22582;BME280;47125;48.542;9.052;2023-12-14T21:29:01;96750.22;;;7.69;79.01
22582;BME280;47125;48.542;9.052;2023-12-14T21:39:06;96753.47;;;7.64;78.94
22582;BME280;47125;48.542;9.052;2023-12-14T21:49:08;96780.09;;;7.24;79.35
22582;BME280;47125;48.542;9.052;2023-12-14T21:59:20;96794.16;;;7.24;78.92
22582;BME280;47125;48.542;9.052;2023-12-14T22:09:23;96813.31;;;7.47;78.93
22582;BME280;47125;48.542;9.052;2023-12-14T22:19:27;96826.38;;;7.49;79.28
22582;BME280;47125;48.542;9.052;2023-12-14T22:29:29;96843.38;;;7.48;78.93
22582;BME280;47125;48.542;9.052;2023-12-14T22:39:33;96853.31;;;7.39;79.26
22582;BME280;47125;48.542;9.052;2023-12-14T22:49:36;96880.28;;;7.36;79.12
22582;BME280;47125;48.542;9.052;2023-12-14T22:59:40;96884.78;;;7.36;79.21
22582;BME280;47125;48.542;9.052;2023-12-14T23:09:43;96903.41;;;7.42;78.34
22582;BME280;47125;48.542;9.052;2023-12-14T23:19:48;96916.22;;;7.32;78.16
22582;BME280;47125;48.542;9.052;2023-12-14T23:29:51;96935.69;;;7.39;77.73
22582;BME280;47125;48.542;9.052;2023-12-14T23:39:55;96941.59;;;7.35;77.93
22582;BME280;47125;48.542;9.052;2023-12-14T23:49:57;96958.59;;;7.40;78.19
